sensor_id;sensor_type;location;lat;lon;timestamp;P1;durP1;ratioP1;P2;durP2;ratioP2
72335;SDS011;65062;48.446;8.834;2023-06-22T00:02:57;7.68;;;3.55;;
72335;SDS011;65062;48.446;8.834;2023-06-22T00:05:58;5.75;;;3.38;;
72335;SDS011;65062;48.446;8.834;2023-06-22T00:08:58;4.78;;;2.70;;
72335;SDS011;65062;48.446;8.834;2023-06-22T00:11:59;4.28;;;2.92;;
72335;SDS011;65062;48.446;8.834;2023-06-22T00:14:59;7.28;;;3.70;;
72335;SDS011;65062;48.446;8.834;2023-06-22T00:18:00;4.85;;;3.00;;
72335;SDS011;65062;48.446;8.834;2023-06-22T00:21:00;5.00;;;2.55;;
72335;SDS011;65062;48.446;8.834;2023-06-22T00:24:01;4.85;;;3.03;;
72335;SDS011;65062;48.446;8.834;2023-06-22T00:27:01;6.00;;;3.08;;
72335;SDS011;65062;48.446;8.834;2023-06-22T00:30:02;4.30;;;3.10;;
72335;SDS011;65062;48.446;8.834;2023-06-22T00:33:03;4.63;;;2.85;;
72335;SDS011;65062;48.446;8.834;2023-06-22T00:36:04;4.38;;;3.13;;
72335;SDS011;65062;48.446;8.834;2023-06-22T00:39:04;5.00;;;3.60;;
72335;SDS011;65062;48.446;8.834;2023-06-22T00:45:06;3.87;;;2.80;;
72335;SDS011;65062;48.446;8.834;2023-06-22T00:48:07;5.85;;;3.80;;
72335;SDS011;65062;48.446;8.834;2023-06-22T00:51:08;6.10;;;3.47;;
72335;SDS011;65062;48.446;8.834;2023-06-22T00:54:09;5.57;;;3.05;;
72335;SDS011;65062;48.446;8.834;2023-06-22T00:57:13;5.43;;;3.40;;
72335;SDS011;65062;48.446;8.834;2023-06-22T01:00:17;5.53;;;3.53;;
72335;SDS011;65062;48.446;8.834;2023-06-22T01:03:19;8.63;;;4.00;;
72335;SDS011;65062;48.446;8.834;2023-06-22T01:06:22;6.72;;;4.13;;
72335;SDS011;65062;48.446;8.834;2023-06-22T01:09:31;5.75;;;3.70;;
72335;SDS011;65062;48.446;8.834;2023-06-22T01:12:34;7.45;;;3.58;;
72335;SDS011;65062;48.446;8.834;2023-06-22T01:15:42;5.72;;;3.35;;
72335;SDS011;65062;48.446;8.834;2023-06-22T01:18:46;4.82;;;3.10;;
72335;SDS011;65062;48.446;8.834;2023-06-22T01:21:52;5.45;;;3.20;;
72335;SDS011;65062;48.446;8.834;2023-06-22T01:25:12;7.28;;;3.78;;
72335;SDS011;65062;48.446;8.834;2023-06-22T01:31:41;4.60;;;2.70;;
72335;SDS011;65062;48.446;8.834;2023-06-22T01:34:44;5.88;;;3.80;;
72335;SDS011;65062;48.446;8.834;2023-06-22T01:37:46;4.75;;;3.35;;
72335;SDS011;65062;48.446;8.834;2023-06-22T01:40:48;4.88;;;3.22;;
72335;SDS011;65062;48.446;8.834;2023-06-22T01:43:49;5.50;;;3.38;;
72335;SDS011;65062;48.446;8.834;2023-06-22T01:46:51;8.80;;;3.55;;
72335;SDS011;65062;48.446;8.834;2023-06-22T01:49:52;6.85;;;4.38;;
72335;SDS011;65062;48.446;8.834;2023-06-22T01:52:53;6.35;;;3.60;;
72335;SDS011;65062;48.446;8.834;2023-06-22T01:55:54;5.88;;;2.80;;
72335;SDS011;65062;48.446;8.834;2023-06-22T02:02:09;6.30;;;3.25;;
72335;SDS011;65062;48.446;8.834;2023-06-22T02:05:11;4.35;;;3.08;;
72335;SDS011;65062;48.446;8.834;2023-06-22T02:08:20;7.70;;;3.92;;
72335;SDS011;65062;48.446;8.834;2023-06-22T02:11:22;6.00;;;3.53;;
72335;SDS011;65062;48.446;8.834;2023-06-22T02:14:25;6.90;;;3.65;;
72335;SDS011;65062;48.446;8.834;2023-06-22T02:17:27;5.55;;;3.28;;
72335;SDS011;65062;48.446;8.834;2023-06-22T02:20:28;7.00;;;3.50;;
72335;SDS011;65062;48.446;8.834;2023-06-22T02:23:28;6.88;;;3.53;;
72335;SDS011;65062;48.446;8.834;2023-06-22T02:26:29;5.72;;;3.30;;
72335;SDS011;65062;48.446;8.834;2023-06-22T02:29:30;7.55;;;2.83;;
72335;SDS011;65062;48.446;8.834;2023-06-22T02:32:30;9.23;;;3.60;;
72335;SDS011;65062;48.446;8.834;2023-06-22T02:35:34;4.85;;;3.53;;
72335;SDS011;65062;48.446;8.834;2023-06-22T02:41:36;5.47;;;3.50;;
72335;SDS011;65062;48.446;8.834;2023-06-22T02:44:36;6.43;;;3.40;;
72335;SDS011;65062;48.446;8.834;2023-06-22T02:47:37;6.55;;;3.80;;
72335;SDS011;65062;48.446;8.834;2023-06-22T02:50:37;6.82;;;3.95;;
72335;SDS011;65062;48.446;8.834;2023-06-22T02:53:38;7.00;;;3.60;;
72335;SDS011;65062;48.446;8.834;2023-06-22T02:56:38;10.23;;;4.30;;
72335;SDS011;65062;48.446;8.834;2023-06-22T02:59:40;5.57;;;3.33;;
72335;SDS011;65062;48.446;8.834;2023-06-22T03:05:42;8.35;;;4.82;;
72335;SDS011;65062;48.446;8.834;2023-06-22T03:08:42;7.45;;;3.53;;
72335;SDS011;65062;48.446;8.834;2023-06-22T03:11:43;6.35;;;3.70;;
72335;SDS011;65062;48.446;8.834;2023-06-22T03:14:43;4.93;;;3.75;;
72335;SDS011;65062;48.446;8.834;2023-06-22T03:17:43;9.48;;;3.90;;
72335;SDS011;65062;48.446;8.834;2023-06-22T03:20:44;6.78;;;3.30;;
72335;SDS011;65062;48.446;8.834;2023-06-22T03:23:44;6.20;;;3.28;;
72335;SDS011;65062;48.446;8.834;2023-06-22T03:26:45;7.53;;;3.88;;
72335;SDS011;65062;48.446;8.834;2023-06-22T03:29:46;10.52;;;3.97;;
72335;SDS011;65062;48.446;8.834;2023-06-22T03:32:47;8.82;;;3.97;;
72335;SDS011;65062;48.446;8.834;2023-06-22T03:35:47;8.75;;;3.38;;
72335;SDS011;65062;48.446;8.834;2023-06-22T03:38:48;7.00;;;3.78;;
72335;SDS011;65062;48.446;8.834;2023-06-22T03:41:50;7.95;;;3.90;;
72335;SDS011;65062;48.446;8.834;2023-06-22T03:44:50;7.15;;;3.83;;
72335;SDS011;65062;48.446;8.834;2023-06-22T03:47:51;5.40;;;3.75;;
72335;SDS011;65062;48.446;8.834;2023-06-22T03:50:51;7.75;;;3.88;;
72335;SDS011;65062;48.446;8.834;2023-06-22T03:53:51;8.00;;;4.10;;
72335;SDS011;65062;48.446;8.834;2023-06-22T03:56:52;6.35;;;4.05;;
72335;SDS011;65062;48.446;8.834;2023-06-22T03:59:53;6.85;;;3.97;;
72335;SDS011;65062;48.446;8.834;2023-06-22T04:02:56;5.30;;;3.70;;
72335;SDS011;65062;48.446;8.834;2023-06-22T04:05:57;7.90;;;4.55;;
72335;SDS011;65062;48.446;8.834;2023-06-22T04:08:57;6.65;;;3.75;;
72335;SDS011;65062;48.446;8.834;2023-06-22T04:11:57;6.03;;;2.97;;
72335;SDS011;65062;48.446;8.834;2023-06-22T04:14:58;6.60;;;3.45;;
72335;SDS011;65062;48.446;8.834;2023-06-22T04:17:58;6.65;;;3.08;;
72335;SDS011;65062;48.446;8.834;2023-06-22T04:20:58;6.18;;;3.08;;
72335;SDS011;65062;48.446;8.834;2023-06-22T04:23:59;7.80;;;4.18;;
72335;SDS011;65062;48.446;8.834;2023-06-22T04:26:59;6.82;;;3.92;;
72335;SDS011;65062;48.446;8.834;2023-06-22T04:30:03;6.93;;;3.80;;
72335;SDS011;65062;48.446;8.834;2023-06-22T04:33:04;5.82;;;3.70;;
72335;SDS011;65062;48.446;8.834;2023-06-22T04:36:04;5.47;;;3.28;;
72335;SDS011;65062;48.446;8.834;2023-06-22T04:39:06;7.43;;;4.13;;
72335;SDS011;65062;48.446;8.834;2023-06-22T04:42:11;7.00;;;4.00;;
72335;SDS011;65062;48.446;8.834;2023-06-22T04:45:12;6.28;;;3.83;;
72335;SDS011;65062;48.446;8.834;2023-06-22T04:48:13;5.40;;;3.47;;
72335;SDS011;65062;48.446;8.834;2023-06-22T04:51:16;6.03;;;3.88;;
72335;SDS011;65062;48.446;8.834;2023-06-22T04:54:16;7.05;;;3.75;;
72335;SDS011;65062;48.446;8.834;2023-06-22T04:57:16;7.20;;;3.67;;
72335;SDS011;65062;48.446;8.834;2023-06-22T05:00:17;6.72;;;3.45;;
72335;SDS011;65062;48.446;8.834;2023-06-22T05:03:19;6.80;;;3.85;;
72335;SDS011;65062;48.446;8.834;2023-06-22T05:06:20;9.50;;;4.00;;
72335;SDS011;65062;48.446;8.834;2023-06-22T05:09:20;8.98;;;3.58;;
72335;SDS011;65062;48.446;8.834;2023-06-22T05:12:21;5.88;;;3.65;;
72335;SDS011;65062;48.446;8.834;2023-06-22T05:15:21;4.60;;;3.60;;
72335;SDS011;65062;48.446;8.834;2023-06-22T05:18:29;6.55;;;3.63;;
72335;SDS011;65062;48.446;8.834;2023-06-22T05:21:31;6.47;;;4.00;;
72335;SDS011;65062;48.446;8.834;2023-06-22T05:24:31;7.32;;;4.03;;
72335;SDS011;65062;48.446;8.834;2023-06-22T05:27:32;8.27;;;4.40;;
72335;SDS011;65062;48.446;8.834;2023-06-22T05:30:32;7.13;;;3.72;;
72335;SDS011;65062;48.446;8.834;2023-06-22T05:33:32;7.40;;;4.03;;
72335;SDS011;65062;48.446;8.834;2023-06-22T05:36:33;6.55;;;4.03;;
72335;SDS011;65062;48.446;8.834;2023-06-22T05:39:33;4.95;;;3.78;;
72335;SDS011;65062;48.446;8.834;2023-06-22T05:42:34;6.88;;;4.05;;
72335;SDS011;65062;48.446;8.834;2023-06-22T05:45:34;6.20;;;3.97;;
72335;SDS011;65062;48.446;8.834;2023-06-22T05:48:34;11.27;;;4.70;;
72335;SDS011;65062;48.446;8.834;2023-06-22T05:51:35;6.65;;;4.05;;
72335;SDS011;65062;48.446;8.834;2023-06-22T05:54:35;6.05;;;3.90;;
72335;SDS011;65062;48.446;8.834;2023-06-22T05:57:38;10.15;;;3.95;;
72335;SDS011;65062;48.446;8.834;2023-06-22T06:00:39;8.95;;;4.38;;
72335;SDS011;65062;48.446;8.834;2023-06-22T06:03:40;6.38;;;3.83;;
72335;SDS011;65062;48.446;8.834;2023-06-22T06:06:41;7.50;;;4.10;;
72335;SDS011;65062;48.446;8.834;2023-06-22T06:09:41;7.68;;;3.60;;
72335;SDS011;65062;48.446;8.834;2023-06-22T06:12:41;7.25;;;3.70;;
72335;SDS011;65062;48.446;8.834;2023-06-22T06:15:42;9.07;;;4.50;;
72335;SDS011;65062;48.446;8.834;2023-06-22T06:18:42;6.60;;;3.88;;
72335;SDS011;65062;48.446;8.834;2023-06-22T06:21:42;5.40;;;3.83;;
72335;SDS011;65062;48.446;8.834;2023-06-22T06:24:43;6.57;;;3.72;;
72335;SDS011;65062;48.446;8.834;2023-06-22T06:27:44;5.38;;;3.55;;
72335;SDS011;65062;48.446;8.834;2023-06-22T06:30:49;4.78;;;3.60;;
72335;SDS011;65062;48.446;8.834;2023-06-22T06:33:51;6.65;;;3.65;;
72335;SDS011;65062;48.446;8.834;2023-06-22T06:36:53;4.47;;;3.20;;
72335;SDS011;65062;48.446;8.834;2023-06-22T06:39:54;11.05;;;7.32;;
72335;SDS011;65062;48.446;8.834;2023-06-22T06:42:54;10.90;;;7.30;;
72335;SDS011;65062;48.446;8.834;2023-06-22T06:48:55;14.80;;;8.80;;
72335;SDS011;65062;48.446;8.834;2023-06-22T06:51:55;10.90;;;6.90;;
72335;SDS011;65062;48.446;8.834;2023-06-22T06:54:56;8.55;;;5.65;;
72335;SDS011;65062;48.446;8.834;2023-06-22T06:57:56;7.78;;;4.25;;
72335;SDS011;65062;48.446;8.834;2023-06-22T07:00:56;8.48;;;5.47;;
72335;SDS011;65062;48.446;8.834;2023-06-22T07:03:57;5.93;;;3.28;;
72335;SDS011;65062;48.446;8.834;2023-06-22T07:06:58;6.55;;;3.65;;
72335;SDS011;65062;48.446;8.834;2023-06-22T07:09:59;4.50;;;3.63;;
72335;SDS011;65062;48.446;8.834;2023-06-22T07:12:59;5.35;;;3.17;;
72335;SDS011;65062;48.446;8.834;2023-06-22T07:16:00;6.15;;;3.17;;
72335;SDS011;65062;48.446;8.834;2023-06-22T07:22:00;4.70;;;3.00;;
72335;SDS011;65062;48.446;8.834;2023-06-22T07:25:01;4.78;;;2.60;;
72335;SDS011;65062;48.446;8.834;2023-06-22T07:28:06;4.68;;;2.65;;
72335;SDS011;65062;48.446;8.834;2023-06-22T07:31:07;4.80;;;2.42;;
72335;SDS011;65062;48.446;8.834;2023-06-22T07:34:08;4.88;;;2.55;;
72335;SDS011;65062;48.446;8.834;2023-06-22T07:37:08;6.57;;;3.08;;
72335;SDS011;65062;48.446;8.834;2023-06-22T07:40:09;4.28;;;2.42;;
72335;SDS011;65062;48.446;8.834;2023-06-22T07:43:10;6.82;;;3.10;;
72335;SDS011;65062;48.446;8.834;2023-06-22T07:46:10;5.50;;;2.20;;
72335;SDS011;65062;48.446;8.834;2023-06-22T07:49:11;5.80;;;3.08;;
72335;SDS011;65062;48.446;8.834;2023-06-22T07:52:11;5.18;;;3.05;;
72335;SDS011;65062;48.446;8.834;2023-06-22T07:58:13;3.57;;;2.53;;
72335;SDS011;65062;48.446;8.834;2023-06-22T08:04:14;6.97;;;2.90;;
72335;SDS011;65062;48.446;8.834;2023-06-22T08:07:14;5.60;;;2.63;;
72335;SDS011;65062;48.446;8.834;2023-06-22T08:13:15;4.43;;;2.83;;
72335;SDS011;65062;48.446;8.834;2023-06-22T08:19:16;4.33;;;2.40;;
72335;SDS011;65062;48.446;8.834;2023-06-22T08:25:17;4.50;;;2.30;;
72335;SDS011;65062;48.446;8.834;2023-06-22T08:28:18;4.07;;;2.78;;
72335;SDS011;65062;48.446;8.834;2023-06-22T08:31:18;5.28;;;3.22;;
72335;SDS011;65062;48.446;8.834;2023-06-22T08:34:19;3.60;;;2.33;;
72335;SDS011;65062;48.446;8.834;2023-06-22T08:37:21;3.20;;;2.42;;
72335;SDS011;65062;48.446;8.834;2023-06-22T08:40:30;6.53;;;3.03;;
72335;SDS011;65062;48.446;8.834;2023-06-22T08:43:30;6.20;;;3.25;;
72335;SDS011;65062;48.446;8.834;2023-06-22T08:46:31;4.30;;;3.00;;
72335;SDS011;65062;48.446;8.834;2023-06-22T08:49:33;5.03;;;2.65;;
72335;SDS011;65062;48.446;8.834;2023-06-22T08:52:34;4.88;;;2.95;;
72335;SDS011;65062;48.446;8.834;2023-06-22T08:55:35;4.30;;;2.92;;
72335;SDS011;65062;48.446;8.834;2023-06-22T08:58:35;5.65;;;2.70;;
72335;SDS011;65062;48.446;8.834;2023-06-22T09:01:35;5.05;;;2.90;;
72335;SDS011;65062;48.446;8.834;2023-06-22T09:04:36;3.95;;;3.25;;
72335;SDS011;65062;48.446;8.834;2023-06-22T09:07:36;6.93;;;3.28;;
72335;SDS011;65062;48.446;8.834;2023-06-22T09:10:37;5.03;;;3.33;;
72335;SDS011;65062;48.446;8.834;2023-06-22T09:13:37;6.65;;;3.28;;
72335;SDS011;65062;48.446;8.834;2023-06-22T09:16:38;5.78;;;3.00;;
72335;SDS011;65062;48.446;8.834;2023-06-22T09:19:39;7.47;;;3.00;;
72335;SDS011;65062;48.446;8.834;2023-06-22T09:22:39;4.85;;;2.80;;
72335;SDS011;65062;48.446;8.834;2023-06-22T09:25:40;4.72;;;3.00;;
72335;SDS011;65062;48.446;8.834;2023-06-22T09:28:41;4.20;;;3.00;;
72335;SDS011;65062;48.446;8.834;2023-06-22T09:31:41;4.85;;;2.95;;
72335;SDS011;65062;48.446;8.834;2023-06-22T09:34:41;5.97;;;3.20;;
72335;SDS011;65062;48.446;8.834;2023-06-22T09:37:42;7.47;;;3.03;;
72335;SDS011;65062;48.446;8.834;2023-06-22T09:40:42;6.47;;;2.85;;
72335;SDS011;65062;48.446;8.834;2023-06-22T09:43:42;6.10;;;2.80;;
72335;SDS011;65062;48.446;8.834;2023-06-22T09:46:43;4.18;;;2.70;;
72335;SDS011;65062;48.446;8.834;2023-06-22T09:49:44;5.50;;;3.42;;
72335;SDS011;65062;48.446;8.834;2023-06-22T09:52:44;4.40;;;2.88;;
72335;SDS011;65062;48.446;8.834;2023-06-22T09:55:46;6.28;;;2.90;;
72335;SDS011;65062;48.446;8.834;2023-06-22T09:58:47;5.82;;;2.88;;
72335;SDS011;65062;48.446;8.834;2023-06-22T10:01:50;5.32;;;3.13;;
72335;SDS011;65062;48.446;8.834;2023-06-22T10:04:50;5.95;;;3.30;;
72335;SDS011;65062;48.446;8.834;2023-06-22T10:07:50;4.82;;;2.80;;
72335;SDS011;65062;48.446;8.834;2023-06-22T10:10:51;6.80;;;3.17;;
72335;SDS011;65062;48.446;8.834;2023-06-22T10:13:51;3.65;;;2.67;;
72335;SDS011;65062;48.446;8.834;2023-06-22T10:16:52;5.97;;;3.10;;
72335;SDS011;65062;48.446;8.834;2023-06-22T10:19:52;5.30;;;2.88;;
72335;SDS011;65062;48.446;8.834;2023-06-22T10:22:53;7.72;;;2.90;;
72335;SDS011;65062;48.446;8.834;2023-06-22T10:25:53;5.68;;;3.35;;
72335;SDS011;65062;48.446;8.834;2023-06-22T10:28:54;4.30;;;2.92;;
72335;SDS011;65062;48.446;8.834;2023-06-22T10:31:54;5.20;;;3.08;;
72335;SDS011;65062;48.446;8.834;2023-06-22T10:34:54;4.03;;;2.92;;
72335;SDS011;65062;48.446;8.834;2023-06-22T10:37:55;6.35;;;2.90;;
72335;SDS011;65062;48.446;8.834;2023-06-22T10:40:56;6.20;;;3.55;;
72335;SDS011;65062;48.446;8.834;2023-06-22T10:43:56;9.13;;;3.17;;
72335;SDS011;65062;48.446;8.834;2023-06-22T10:46:57;7.05;;;3.03;;
72335;SDS011;65062;48.446;8.834;2023-06-22T10:49:57;5.18;;;3.00;;
72335;SDS011;65062;48.446;8.834;2023-06-22T10:52:57;4.50;;;2.88;;
72335;SDS011;65062;48.446;8.834;2023-06-22T10:55:58;5.95;;;2.90;;
72335;SDS011;65062;48.446;8.834;2023-06-22T10:58:58;5.68;;;3.25;;
72335;SDS011;65062;48.446;8.834;2023-06-22T11:01:59;5.43;;;2.92;;
72335;SDS011;65062;48.446;8.834;2023-06-22T11:04:59;4.57;;;2.88;;
72335;SDS011;65062;48.446;8.834;2023-06-22T11:08:03;5.45;;;2.83;;
72335;SDS011;65062;48.446;8.834;2023-06-22T11:11:04;4.50;;;3.30;;
72335;SDS011;65062;48.446;8.834;2023-06-22T11:14:04;4.82;;;3.28;;
72335;SDS011;65062;48.446;8.834;2023-06-22T11:17:05;4.55;;;3.20;;
72335;SDS011;65062;48.446;8.834;2023-06-22T11:20:05;5.20;;;3.15;;
72335;SDS011;65062;48.446;8.834;2023-06-22T11:23:12;3.63;;;2.95;;
72335;SDS011;65062;48.446;8.834;2023-06-22T11:26:12;6.80;;;3.30;;
72335;SDS011;65062;48.446;8.834;2023-06-22T11:29:13;6.30;;;2.90;;
72335;SDS011;65062;48.446;8.834;2023-06-22T11:32:13;5.50;;;3.20;;
72335;SDS011;65062;48.446;8.834;2023-06-22T11:35:14;4.28;;;3.20;;
72335;SDS011;65062;48.446;8.834;2023-06-22T11:38:14;4.40;;;2.50;;
72335;SDS011;65062;48.446;8.834;2023-06-22T11:41:15;6.80;;;2.92;;
72335;SDS011;65062;48.446;8.834;2023-06-22T11:44:15;6.10;;;2.63;;
72335;SDS011;65062;48.446;8.834;2023-06-22T11:47:15;8.20;;;3.15;;
72335;SDS011;65062;48.446;8.834;2023-06-22T11:50:16;5.70;;;3.20;;
72335;SDS011;65062;48.446;8.834;2023-06-22T11:53:16;4.27;;;3.07;;
72335;SDS011;65062;48.446;8.834;2023-06-22T11:56:17;3.88;;;3.13;;
72335;SDS011;65062;48.446;8.834;2023-06-22T11:59:17;4.43;;;2.80;;
72335;SDS011;65062;48.446;8.834;2023-06-22T12:02:18;5.95;;;2.80;;
72335;SDS011;65062;48.446;8.834;2023-06-22T12:05:19;7.28;;;3.65;;
72335;SDS011;65062;48.446;8.834;2023-06-22T12:08:21;5.25;;;3.00;;
72335;SDS011;65062;48.446;8.834;2023-06-22T12:11:22;4.47;;;2.85;;
72335;SDS011;65062;48.446;8.834;2023-06-22T12:14:22;5.25;;;3.10;;
72335;SDS011;65062;48.446;8.834;2023-06-22T12:17:22;4.70;;;2.50;;
72335;SDS011;65062;48.446;8.834;2023-06-22T12:20:23;5.22;;;3.15;;
72335;SDS011;65062;48.446;8.834;2023-06-22T12:23:23;8.13;;;3.30;;
72335;SDS011;65062;48.446;8.834;2023-06-22T12:26:23;6.25;;;3.00;;
72335;SDS011;65062;48.446;8.834;2023-06-22T12:29:24;6.18;;;2.90;;
72335;SDS011;65062;48.446;8.834;2023-06-22T12:32:24;5.18;;;3.50;;
72335;SDS011;65062;48.446;8.834;2023-06-22T12:35:25;5.45;;;2.90;;
72335;SDS011;65062;48.446;8.834;2023-06-22T12:38:26;6.55;;;3.67;;
72335;SDS011;65062;48.446;8.834;2023-06-22T12:41:26;5.45;;;3.10;;
72335;SDS011;65062;48.446;8.834;2023-06-22T12:44:26;6.60;;;3.13;;
72335;SDS011;65062;48.446;8.834;2023-06-22T12:47:27;6.15;;;3.25;;
72335;SDS011;65062;48.446;8.834;2023-06-22T12:50:27;5.78;;;3.05;;
72335;SDS011;65062;48.446;8.834;2023-06-22T12:53:28;3.88;;;2.70;;
72335;SDS011;65062;48.446;8.834;2023-06-22T12:56:28;5.90;;;3.22;;
72335;SDS011;65062;48.446;8.834;2023-06-22T12:59:28;7.30;;;3.53;;
72335;SDS011;65062;48.446;8.834;2023-06-22T13:02:29;5.33;;;3.27;;
72335;SDS011;65062;48.446;8.834;2023-06-22T13:05:29;8.15;;;3.38;;
72335;SDS011;65062;48.446;8.834;2023-06-22T13:08:30;5.70;;;3.38;;
72335;SDS011;65062;48.446;8.834;2023-06-22T13:11:31;9.50;;;3.42;;
72335;SDS011;65062;48.446;8.834;2023-06-22T13:14:31;5.18;;;3.33;;
72335;SDS011;65062;48.446;8.834;2023-06-22T13:17:31;4.88;;;2.95;;
72335;SDS011;65062;48.446;8.834;2023-06-22T13:20:32;7.60;;;3.28;;
72335;SDS011;65062;48.446;8.834;2023-06-22T13:23:32;6.30;;;3.50;;
72335;SDS011;65062;48.446;8.834;2023-06-22T13:26:33;6.30;;;3.75;;
72335;SDS011;65062;48.446;8.834;2023-06-22T13:29:34;8.32;;;3.75;;
72335;SDS011;65062;48.446;8.834;2023-06-22T13:32:34;5.72;;;3.42;;
72335;SDS011;65062;48.446;8.834;2023-06-22T13:35:35;6.20;;;2.92;;
72335;SDS011;65062;48.446;8.834;2023-06-22T13:38:35;5.20;;;3.28;;
72335;SDS011;65062;48.446;8.834;2023-06-22T13:41:38;4.85;;;2.78;;
72335;SDS011;65062;48.446;8.834;2023-06-22T13:44:38;5.43;;;3.17;;
72335;SDS011;65062;48.446;8.834;2023-06-22T13:47:39;5.32;;;3.13;;
72335;SDS011;65062;48.446;8.834;2023-06-22T13:50:39;6.28;;;3.15;;
72335;SDS011;65062;48.446;8.834;2023-06-22T13:53:40;8.52;;;3.97;;
72335;SDS011;65062;48.446;8.834;2023-06-22T13:56:40;4.75;;;2.90;;
72335;SDS011;65062;48.446;8.834;2023-06-22T13:59:40;5.35;;;2.60;;
72335;SDS011;65062;48.446;8.834;2023-06-22T14:02:41;7.03;;;3.28;;
72335;SDS011;65062;48.446;8.834;2023-06-22T14:05:41;6.53;;;3.33;;
72335;SDS011;65062;48.446;8.834;2023-06-22T14:08:42;8.80;;;3.20;;
72335;SDS011;65062;48.446;8.834;2023-06-22T14:11:43;5.75;;;3.40;;
72335;SDS011;65062;48.446;8.834;2023-06-22T14:14:43;7.05;;;3.00;;
72335;SDS011;65062;48.446;8.834;2023-06-22T14:17:44;5.75;;;2.92;;
72335;SDS011;65062;48.446;8.834;2023-06-22T14:20:44;5.32;;;3.42;;
72335;SDS011;65062;48.446;8.834;2023-06-22T14:23:44;3.70;;;3.05;;
72335;SDS011;65062;48.446;8.834;2023-06-22T14:26:49;4.88;;;2.90;;
72335;SDS011;65062;48.446;8.834;2023-06-22T14:29:49;4.13;;;3.03;;
72335;SDS011;65062;48.446;8.834;2023-06-22T14:32:50;5.63;;;2.35;;
72335;SDS011;65062;48.446;8.834;2023-06-22T14:35:50;4.95;;;1.90;;
72335;SDS011;65062;48.446;8.834;2023-06-22T14:38:50;4.38;;;2.40;;
72335;SDS011;65062;48.446;8.834;2023-06-22T14:41:51;3.63;;;1.65;;
72335;SDS011;65062;48.446;8.834;2023-06-22T14:44:51;5.00;;;1.87;;
72335;SDS011;65062;48.446;8.834;2023-06-22T14:47:51;5.78;;;1.60;;
72335;SDS011;65062;48.446;8.834;2023-06-22T14:50:52;4.90;;;1.75;;
72335;SDS011;65062;48.446;8.834;2023-06-22T14:53:54;4.25;;;1.60;;
72335;SDS011;65062;48.446;8.834;2023-06-22T14:56:54;4.13;;;1.80;;
72335;SDS011;65062;48.446;8.834;2023-06-22T14:59:54;3.87;;;1.50;;
72335;SDS011;65062;48.446;8.834;2023-06-22T15:02:55;4.13;;;1.58;;
72335;SDS011;65062;48.446;8.834;2023-06-22T15:05:56;5.82;;;1.45;;
72335;SDS011;65062;48.446;8.834;2023-06-22T15:08:56;3.08;;;1.60;;
72335;SDS011;65062;48.446;8.834;2023-06-22T15:11:57;3.88;;;1.38;;
72335;SDS011;65062;48.446;8.834;2023-06-22T15:14:57;5.25;;;1.70;;
72335;SDS011;65062;48.446;8.834;2023-06-22T15:17:58;7.82;;;1.83;;
72335;SDS011;65062;48.446;8.834;2023-06-22T15:20:58;4.47;;;2.38;;
72335;SDS011;65062;48.446;8.834;2023-06-22T15:23:59;5.05;;;1.73;;
72335;SDS011;65062;48.446;8.834;2023-06-22T15:26:59;3.95;;;1.70;;
72335;SDS011;65062;48.446;8.834;2023-06-22T15:30:00;3.47;;;1.83;;
72335;SDS011;65062;48.446;8.834;2023-06-22T15:33:01;6.68;;;2.30;;
72335;SDS011;65062;48.446;8.834;2023-06-22T15:36:01;4.75;;;2.00;;
72335;SDS011;65062;48.446;8.834;2023-06-22T15:39:03;3.05;;;1.67;;
72335;SDS011;65062;48.446;8.834;2023-06-22T15:42:04;7.40;;;2.38;;
72335;SDS011;65062;48.446;8.834;2023-06-22T15:45:05;4.97;;;1.70;;
72335;SDS011;65062;48.446;8.834;2023-06-22T15:48:05;6.80;;;2.10;;
72335;SDS011;65062;48.446;8.834;2023-06-22T15:51:06;5.85;;;2.20;;
72335;SDS011;65062;48.446;8.834;2023-06-22T15:54:06;4.77;;;2.07;;
72335;SDS011;65062;48.446;8.834;2023-06-22T15:57:07;4.90;;;1.90;;
72335;SDS011;65062;48.446;8.834;2023-06-22T16:00:08;4.47;;;1.90;;
72335;SDS011;65062;48.446;8.834;2023-06-22T16:03:11;6.85;;;1.98;;
72335;SDS011;65062;48.446;8.834;2023-06-22T16:06:12;4.25;;;1.88;;
72335;SDS011;65062;48.446;8.834;2023-06-22T16:09:12;5.88;;;2.25;;
72335;SDS011;65062;48.446;8.834;2023-06-22T16:12:14;4.80;;;2.08;;
72335;SDS011;65062;48.446;8.834;2023-06-22T16:15:14;3.45;;;1.90;;
72335;SDS011;65062;48.446;8.834;2023-06-22T16:18:15;3.08;;;2.00;;
72335;SDS011;65062;48.446;8.834;2023-06-22T16:21:16;5.72;;;1.90;;
72335;SDS011;65062;48.446;8.834;2023-06-22T16:24:16;7.25;;;2.38;;
72335;SDS011;65062;48.446;8.834;2023-06-22T16:27:17;2.83;;;1.50;;
72335;SDS011;65062;48.446;8.834;2023-06-22T16:30:18;3.00;;;1.35;;
72335;SDS011;65062;48.446;8.834;2023-06-22T16:33:18;4.55;;;1.55;;
72335;SDS011;65062;48.446;8.834;2023-06-22T16:36:19;2.13;;;1.50;;
72335;SDS011;65062;48.446;8.834;2023-06-22T16:39:20;3.45;;;1.20;;
72335;SDS011;65062;48.446;8.834;2023-06-22T16:42:20;3.47;;;1.63;;
72335;SDS011;65062;48.446;8.834;2023-06-22T16:45:20;1.98;;;1.52;;
72335;SDS011;65062;48.446;8.834;2023-06-22T16:48:21;3.22;;;1.50;;
72335;SDS011;65062;48.446;8.834;2023-06-22T16:51:21;3.47;;;1.40;;
72335;SDS011;65062;48.446;8.834;2023-06-22T16:54:22;3.92;;;1.60;;
72335;SDS011;65062;48.446;8.834;2023-06-22T16:57:24;3.35;;;1.33;;
72335;SDS011;65062;48.446;8.834;2023-06-22T17:00:24;3.13;;;1.17;;
72335;SDS011;65062;48.446;8.834;2023-06-22T17:03:27;4.60;;;2.15;;
72335;SDS011;65062;48.446;8.834;2023-06-22T17:06:29;5.57;;;1.10;;
72335;SDS011;65062;48.446;8.834;2023-06-22T17:09:31;3.13;;;1.17;;
72335;SDS011;65062;48.446;8.834;2023-06-22T17:12:33;2.47;;;1.10;;
72335;SDS011;65062;48.446;8.834;2023-06-22T17:15:33;3.17;;;1.00;;
72335;SDS011;65062;48.446;8.834;2023-06-22T17:18:35;2.60;;;1.25;;
72335;SDS011;65062;48.446;8.834;2023-06-22T17:24:36;3.13;;;0.80;;
72335;SDS011;65062;48.446;8.834;2023-06-22T17:27:40;5.65;;;1.38;;
72335;SDS011;65062;48.446;8.834;2023-06-22T17:33:41;2.35;;;1.00;;
72335;SDS011;65062;48.446;8.834;2023-06-22T17:39:43;5.53;;;1.05;;
72335;SDS011;65062;48.446;8.834;2023-06-22T17:42:52;0.77;;;0.50;;
72335;SDS011;65062;48.446;8.834;2023-06-22T17:46:04;5.78;;;1.35;;
72335;SDS011;65062;48.446;8.834;2023-06-22T17:52:15;0.65;;;0.55;;
72335;SDS011;65062;48.446;8.834;2023-06-22T17:55:21;2.28;;;0.98;;
72335;SDS011;65062;48.446;8.834;2023-06-22T17:58:22;2.88;;;1.15;;
72335;SDS011;65062;48.446;8.834;2023-06-22T18:04:36;3.45;;;1.15;;
72335;SDS011;65062;48.446;8.834;2023-06-22T18:07:36;2.42;;;1.10;;
72335;SDS011;65062;48.446;8.834;2023-06-22T18:10:37;2.88;;;0.90;;
72335;SDS011;65062;48.446;8.834;2023-06-22T18:13:39;3.90;;;0.95;;
72335;SDS011;65062;48.446;8.834;2023-06-22T18:16:43;2.72;;;1.13;;
72335;SDS011;65062;48.446;8.834;2023-06-22T18:19:50;2.40;;;1.10;;
72335;SDS011;65062;48.446;8.834;2023-06-22T18:22:51;3.15;;;1.10;;
72335;SDS011;65062;48.446;8.834;2023-06-22T18:25:53;3.30;;;1.30;;
72335;SDS011;65062;48.446;8.834;2023-06-22T18:28:54;3.28;;;1.25;;
72335;SDS011;65062;48.446;8.834;2023-06-22T18:31:56;4.13;;;1.52;;
72335;SDS011;65062;48.446;8.834;2023-06-22T18:34:57;6.97;;;3.33;;
72335;SDS011;65062;48.446;8.834;2023-06-22T18:37:58;4.40;;;1.10;;
72335;SDS011;65062;48.446;8.834;2023-06-22T18:44:00;3.70;;;1.63;;
72335;SDS011;65062;48.446;8.834;2023-06-22T18:47:02;2.63;;;1.35;;
72335;SDS011;65062;48.446;8.834;2023-06-22T18:50:07;2.80;;;1.58;;
72335;SDS011;65062;48.446;8.834;2023-06-22T18:53:14;3.30;;;1.25;;
72335;SDS011;65062;48.446;8.834;2023-06-22T18:56:16;2.00;;;1.10;;
72335;SDS011;65062;48.446;8.834;2023-06-22T18:59:16;3.13;;;1.50;;
72335;SDS011;65062;48.446;8.834;2023-06-22T19:05:38;2.80;;;1.30;;
72335;SDS011;65062;48.446;8.834;2023-06-22T19:12:21;3.67;;;1.50;;
72335;SDS011;65062;48.446;8.834;2023-06-22T19:15:30;3.47;;;1.20;;